sensor_id;sensor_type;location;lat;lon;timestamp;temperature;humidity
41720;DHT22;27405;53.316;-6.294;2023-04-28T00:01:43;12.30;99.90
41720;DHT22;27405;53.316;-6.294;2023-04-28T00:04:09;12.20;99.90
41720;DHT22;27405;53.316;-6.294;2023-04-28T00:06:34;12.30;99.90
41720;DHT22;27405;53.316;-6.294;2023-04-28T00:09:00;12.20;99.90
41720;DHT22;27405;53.316;-6.294;2023-04-28T00:11:26;12.20;99.90
41720;DHT22;27405;53.316;-6.294;2023-04-28T00:13:51;12.20;99.90
41720;DHT22;27405;53.316;-6.294;2023-04-28T00:16:17;12.20;99.90
41720;DHT22;27405;53.316;-6.294;2023-04-28T00:18:43;12.20;99.90
41720;DHT22;27405;53.316;-6.294;2023-04-28T00:21:08;12.20;99.90
41720;DHT22;27405;53.316;-6.294;2023-04-28T00:23:34;12.30;99.90
41720;DHT22;27405;53.316;-6.294;2023-04-28T00:26:00;12.30;99.90
41720;DHT22;27405;53.316;-6.294;2023-04-28T00:28:26;12.20;99.90
41720;DHT22;27405;53.316;-6.294;2023-04-28T00:30:52;12.20;99.90
41720;DHT22;27405;53.316;-6.294;2023-04-28T00:33:17;12.20;99.90
41720;DHT22;27405;53.316;-6.294;2023-04-28T00:35:43;12.20;99.90
41720;DHT22;27405;53.316;-6.294;2023-04-28T00:38:09;12.20;99.90
41720;DHT22;27405;53.316;-6.294;2023-04-28T00:40:35;12.20;99.90
41720;DHT22;27405;53.316;-6.294;2023-04-28T00:43:02;12.30;99.90
41720;DHT22;27405;53.316;-6.294;2023-04-28T00:45:28;12.20;99.90
41720;DHT22;27405;53.316;-6.294;2023-04-28T00:47:54;12.30;99.90
41720;DHT22;27405;53.316;-6.294;2023-04-28T00:50:21;12.30;99.90
41720;DHT22;27405;53.316;-6.294;2023-04-28T00:52:47;12.30;99.90
41720;DHT22;27405;53.316;-6.294;2023-04-28T00:55:14;12.20;99.90
41720;DHT22;27405;53.316;-6.294;2023-04-28T00:57:41;12.20;99.90
41720;DHT22;27405;53.316;-6.294;2023-04-28T01:00:07;12.20;99.90
41720;DHT22;27405;53.316;-6.294;2023-04-28T01:02:37;12.20;99.90
41720;DHT22;27405;53.316;-6.294;2023-04-28T01:05:03;12.20;99.90
41720;DHT22;27405;53.316;-6.294;2023-04-28T01:07:29;12.20;99.90
41720;DHT22;27405;53.316;-6.294;2023-04-28T01:09:55;12.20;99.90
41720;DHT22;27405;53.316;-6.294;2023-04-28T01:12:21;12.30;99.90
41720;DHT22;27405;53.316;-6.294;2023-04-28T01:14:48;12.30;99.90
41720;DHT22;27405;53.316;-6.294;2023-04-28T01:17:13;12.30;99.90
41720;DHT22;27405;53.316;-6.294;2023-04-28T01:19:39;12.30;99.90
41720;DHT22;27405;53.316;-6.294;2023-04-28T01:22:05;12.30;99.90
41720;DHT22;27405;53.316;-6.294;2023-04-28T01:24:31;12.30;99.90
41720;DHT22;27405;53.316;-6.294;2023-04-28T01:26:57;12.30;99.90
41720;DHT22;27405;53.316;-6.294;2023-04-28T01:29:22;12.30;99.90
41720;DHT22;27405;53.316;-6.294;2023-04-28T01:31:48;12.30;99.90
41720;DHT22;27405;53.316;-6.294;2023-04-28T01:34:14;12.30;99.90
41720;DHT22;27405;53.316;-6.294;2023-04-28T01:36:39;12.30;99.90
41720;DHT22;27405;53.316;-6.294;2023-04-28T01:39:05;12.30;99.90
41720;DHT22;27405;53.316;-6.294;2023-04-28T01:41:31;12.40;99.90
41720;DHT22;27405;53.316;-6.294;2023-04-28T01:43:59;12.30;99.90
41720;DHT22;27405;53.316;-6.294;2023-04-28T01:46:25;12.30;99.90
41720;DHT22;27405;53.316;-6.294;2023-04-28T01:48:50;12.30;99.90
41720;DHT22;27405;53.316;-6.294;2023-04-28T01:51:16;12.40;99.90
41720;DHT22;27405;53.316;-6.294;2023-04-28T01:53:42;12.30;99.90
41720;DHT22;27405;53.316;-6.294;2023-04-28T01:56:07;12.30;99.90
41720;DHT22;27405;53.316;-6.294;2023-04-28T01:58:33;12.30;99.90
41720;DHT22;27405;53.316;-6.294;2023-04-28T02:00:59;12.30;99.90
41720;DHT22;27405;53.316;-6.294;2023-04-28T02:03:25;12.30;99.90
41720;DHT22;27405;53.316;-6.294;2023-04-28T02:05:52;12.40;99.90
41720;DHT22;27405;53.316;-6.294;2023-04-28T02:08:17;12.40;99.90
41720;DHT22;27405;53.316;-6.294;2023-04-28T02:10:43;12.40;99.90
41720;DHT22;27405;53.316;-6.294;2023-04-28T02:13:09;12.40;99.90
41720;DHT22;27405;53.316;-6.294;2023-04-28T02:15:39;12.40;99.90
41720;DHT22;27405;53.316;-6.294;2023-04-28T02:18:05;12.40;99.90
41720;DHT22;27405;53.316;-6.294;2023-04-28T02:20:31;12.40;99.90
41720;DHT22;27405;53.316;-6.294;2023-04-28T02:22:56;12.30;99.90
41720;DHT22;27405;53.316;-6.294;2023-04-28T02:25:22;12.40;99.90
41720;DHT22;27405;53.316;-6.294;2023-04-28T02:27:48;12.40;99.90
41720;DHT22;27405;53.316;-6.294;2023-04-28T02:30:13;12.30;99.90
41720;DHT22;27405;53.316;-6.294;2023-04-28T02:32:39;12.40;99.90
41720;DHT22;27405;53.316;-6.294;2023-04-28T02:35:05;12.40;99.90
41720;DHT22;27405;53.316;-6.294;2023-04-28T02:37:31;12.40;99.90
41720;DHT22;27405;53.316;-6.294;2023-04-28T02:39:57;12.40;99.90
41720;DHT22;27405;53.316;-6.294;2023-04-28T02:42:22;12.40;99.90
41720;DHT22;27405;53.316;-6.294;2023-04-28T02:44:48;12.40;99.90
41720;DHT22;27405;53.316;-6.294;2023-04-28T02:47:14;12.40;99.90
41720;DHT22;27405;53.316;-6.294;2023-04-28T02:49:39;12.40;99.90
41720;DHT22;27405;53.316;-6.294;2023-04-28T02:52:05;12.30;99.90
41720;DHT22;27405;53.316;-6.294;2023-04-28T02:54:30;12.30;99.90
41720;DHT22;27405;53.316;-6.294;2023-04-28T02:56:58;12.30;99.90
41720;DHT22;27405;53.316;-6.294;2023-04-28T02:59:24;12.30;99.90
41720;DHT22;27405;53.316;-6.294;2023-04-28T03:01:51;12.30;99.90
41720;DHT22;27405;53.316;-6.294;2023-04-28T03:04:17;12.30;99.90
41720;DHT22;27405;53.316;-6.294;2023-04-28T03:06:43;12.30;99.90
41720;DHT22;27405;53.316;-6.294;2023-04-28T03:09:10;12.30;99.90
41720;DHT22;27405;53.316;-6.294;2023-04-28T03:11:36;12.30;99.90
41720;DHT22;27405;53.316;-6.294;2023-04-28T03:14:01;12.30;99.90
41720;DHT22;27405;53.316;-6.294;2023-04-28T03:16:27;12.30;99.90
41720;DHT22;27405;53.316;-6.294;2023-04-28T03:18:53;12.30;99.90
41720;DHT22;27405;53.316;-6.294;2023-04-28T03:21:19;12.30;99.90
41720;DHT22;27405;53.316;-6.294;2023-04-28T03:23:45;12.30;99.90
41720;DHT22;27405;53.316;-6.294;2023-04-28T03:26:11;12.30;99.90
41720;DHT22;27405;53.316;-6.294;2023-04-28T03:28:37;12.30;99.90
41720;DHT22;27405;53.316;-6.294;2023-04-28T03:31:02;12.30;99.90
41720;DHT22;27405;53.316;-6.294;2023-04-28T03:33:28;12.30;99.90
41720;DHT22;27405;53.316;-6.294;2023-04-28T03:35:54;12.20;99.90
41720;DHT22;27405;53.316;-6.294;2023-04-28T03:38:19;12.20;99.90
41720;DHT22;27405;53.316;-6.294;2023-04-28T03:40:45;12.30;99.90
41720;DHT22;27405;53.316;-6.294;2023-04-28T03:43:11;12.30;99.90
41720;DHT22;27405;53.316;-6.294;2023-04-28T03:45:37;12.30;99.90
41720;DHT22;27405;53.316;-6.294;2023-04-28T03:48:03;12.30;99.90
41720;DHT22;27405;53.316;-6.294;2023-04-28T03:50:29;12.20;99.90
41720;DHT22;27405;53.316;-6.294;2023-04-28T03:52:54;12.30;99.90
41720;DHT22;27405;53.316;-6.294;2023-04-28T03:55:20;12.30;99.90
41720;DHT22;27405;53.316;-6.294;2023-04-28T03:57:46;12.20;99.90
41720;DHT22;27405;53.316;-6.294;2023-04-28T04:00:12;12.30;99.90
41720;DHT22;27405;53.316;-6.294;2023-04-28T04:02:38;12.20;99.90
41720;DHT22;27405;53.316;-6.294;2023-04-28T04:05:04;12.30;99.90
41720;DHT22;27405;53.316;-6.294;2023-04-28T04:07:29;12.30;99.90
41720;DHT22;27405;53.316;-6.294;2023-04-28T04:09:55;12.20;99.90
41720;DHT22;27405;53.316;-6.294;2023-04-28T04:12:21;12.20;99.90
41720;DHT22;27405;53.316;-6.294;2023-04-28T04:14:46;12.30;99.90
41720;DHT22;27405;53.316;-6.294;2023-04-28T04:17:12;12.20;99.90
41720;DHT22;27405;53.316;-6.294;2023-04-28T04:19:38;12.20;99.90
41720;DHT22;27405;53.316;-6.294;2023-04-28T04:22:03;12.20;99.90
41720;DHT22;27405;53.316;-6.294;2023-04-28T04:24:29;12.20;99.90
41720;DHT22;27405;53.316;-6.294;2023-04-28T04:26:55;12.10;99.90
41720;DHT22;27405;53.316;-6.294;2023-04-28T04:29:20;12.10;99.90
41720;DHT22;27405;53.316;-6.294;2023-04-28T04:31:46;12.10;99.90
41720;DHT22;27405;53.316;-6.294;2023-04-28T04:34:12;12.10;99.90
41720;DHT22;27405;53.316;-6.294;2023-04-28T04:36:37;12.10;99.90
41720;DHT22;27405;53.316;-6.294;2023-04-28T04:39:03;12.10;99.90
41720;DHT22;27405;53.316;-6.294;2023-04-28T04:41:29;12.10;99.90
41720;DHT22;27405;53.316;-6.294;2023-04-28T04:43:54;12.10;99.90
41720;DHT22;27405;53.316;-6.294;2023-04-28T04:46:20;12.00;99.90
41720;DHT22;27405;53.316;-6.294;2023-04-28T04:48:46;12.00;99.90
41720;DHT22;27405;53.316;-6.294;2023-04-28T04:51:12;12.00;99.90
41720;DHT22;27405;53.316;-6.294;2023-04-28T04:53:38;12.00;99.90
41720;DHT22;27405;53.316;-6.294;2023-04-28T04:56:04;12.00;99.90
41720;DHT22;27405;53.316;-6.294;2023-04-28T04:58:30;12.00;99.90
41720;DHT22;27405;53.316;-6.294;2023-04-28T05:00:55;12.00;99.90
41720;DHT22;27405;53.316;-6.294;2023-04-28T05:03:21;12.00;99.90
41720;DHT22;27405;53.316;-6.294;2023-04-28T05:05:47;11.90;99.90
41720;DHT22;27405;53.316;-6.294;2023-04-28T05:08:13;12.00;99.90
41720;DHT22;27405;53.316;-6.294;2023-04-28T05:10:39;12.00;99.90
41720;DHT22;27405;53.316;-6.294;2023-04-28T05:13:04;12.00;99.90
41720;DHT22;27405;53.316;-6.294;2023-04-28T05:15:30;12.00;99.90
41720;DHT22;27405;53.316;-6.294;2023-04-28T05:17:56;12.00;99.90
41720;DHT22;27405;53.316;-6.294;2023-04-28T05:20:22;12.00;99.90
41720;DHT22;27405;53.316;-6.294;2023-04-28T05:22:48;12.00;99.90
41720;DHT22;27405;53.316;-6.294;2023-04-28T05:25:14;12.10;99.90
41720;DHT22;27405;53.316;-6.294;2023-04-28T05:27:40;12.10;99.90
41720;DHT22;27405;53.316;-6.294;2023-04-28T05:30:07;12.10;99.90
41720;DHT22;27405;53.316;-6.294;2023-04-28T05:32:34;12.10;99.90
41720;DHT22;27405;53.316;-6.294;2023-04-28T05:34:59;12.10;99.90
41720;DHT22;27405;53.316;-6.294;2023-04-28T05:37:25;12.10;99.90
41720;DHT22;27405;53.316;-6.294;2023-04-28T05:39:51;12.10;99.90
41720;DHT22;27405;53.316;-6.294;2023-04-28T05:42:17;12.10;99.90
41720;DHT22;27405;53.316;-6.294;2023-04-28T05:44:42;12.10;99.90
41720;DHT22;27405;53.316;-6.294;2023-04-28T05:47:08;12.10;99.90
41720;DHT22;27405;53.316;-6.294;2023-04-28T05:49:34;12.20;99.90
41720;DHT22;27405;53.316;-6.294;2023-04-28T05:52:00;12.20;99.90
41720;DHT22;27405;53.316;-6.294;2023-04-28T05:54:25;12.20;99.90
41720;DHT22;27405;53.316;-6.294;2023-04-28T05:56:52;12.20;99.90
41720;DHT22;27405;53.316;-6.294;2023-04-28T05:59:18;12.30;99.90
41720;DHT22;27405;53.316;-6.294;2023-04-28T06:01:44;12.30;99.90
41720;DHT22;27405;53.316;-6.294;2023-04-28T06:04:10;12.30;99.90
41720;DHT22;27405;53.316;-6.294;2023-04-28T06:06:35;12.30;99.90
41720;DHT22;27405;53.316;-6.294;2023-04-28T06:09:02;12.40;99.90
41720;DHT22;27405;53.316;-6.294;2023-04-28T06:11:28;12.40;99.90
41720;DHT22;27405;53.316;-6.294;2023-04-28T06:13:53;12.50;99.90
41720;DHT22;27405;53.316;-6.294;2023-04-28T06:16:19;12.50;99.90
41720;DHT22;27405;53.316;-6.294;2023-04-28T06:18:45;12.50;99.90
41720;DHT22;27405;53.316;-6.294;2023-04-28T06:21:11;12.50;99.90
41720;DHT22;27405;53.316;-6.294;2023-04-28T06:23:37;12.50;99.90
41720;DHT22;27405;53.316;-6.294;2023-04-28T06:26:05;12.50;99.90
41720;DHT22;27405;53.316;-6.294;2023-04-28T06:28:30;12.50;99.90
41720;DHT22;27405;53.316;-6.294;2023-04-28T06:30:56;12.50;99.90
41720;DHT22;27405;53.316;-6.294;2023-04-28T06:33:24;12.50;99.90
41720;DHT22;27405;53.316;-6.294;2023-04-28T06:35:49;12.50;99.90
41720;DHT22;27405;53.316;-6.294;2023-04-28T06:38:15;12.60;99.90
41720;DHT22;27405;53.316;-6.294;2023-04-28T06:40:41;12.60;99.90
41720;DHT22;27405;53.316;-6.294;2023-04-28T06:43:07;12.60;99.90
41720;DHT22;27405;53.316;-6.294;2023-04-28T06:45:32;12.70;99.90
41720;DHT22;27405;53.316;-6.294;2023-04-28T06:47:58;12.70;99.90
41720;DHT22;27405;53.316;-6.294;2023-04-28T06:50:24;12.80;99.90
41720;DHT22;27405;53.316;-6.294;2023-04-28T06:52:49;12.80;99.90
41720;DHT22;27405;53.316;-6.294;2023-04-28T06:55:16;12.80;99.90
41720;DHT22;27405;53.316;-6.294;2023-04-28T06:57:42;13.00;99.90
41720;DHT22;27405;53.316;-6.294;2023-04-28T07:00:08;13.10;99.90
41720;DHT22;27405;53.316;-6.294;2023-04-28T07:02:34;13.20;99.90
41720;DHT22;27405;53.316;-6.294;2023-04-28T07:05:01;13.30;99.90
41720;DHT22;27405;53.316;-6.294;2023-04-28T07:07:28;13.30;99.90
41720;DHT22;27405;53.316;-6.294;2023-04-28T07:09:53;13.40;99.90
41720;DHT22;27405;53.316;-6.294;2023-04-28T07:12:20;13.50;99.90
41720;DHT22;27405;53.316;-6.294;2023-04-28T07:14:46;13.50;99.90
41720;DHT22;27405;53.316;-6.294;2023-04-28T07:17:12;13.50;99.90
41720;DHT22;27405;53.316;-6.294;2023-04-28T07:19:38;13.50;99.90
41720;DHT22;27405;53.316;-6.294;2023-04-28T07:22:03;13.60;99.90
41720;DHT22;27405;53.316;-6.294;2023-04-28T07:24:29;13.60;99.90
41720;DHT22;27405;53.316;-6.294;2023-04-28T07:26:55;13.60;99.90
41720;DHT22;27405;53.316;-6.294;2023-04-28T07:29:22;13.50;99.90
41720;DHT22;27405;53.316;-6.294;2023-04-28T07:31:48;13.50;99.90
41720;DHT22;27405;53.316;-6.294;2023-04-28T07:34:13;13.40;99.90
41720;DHT22;27405;53.316;-6.294;2023-04-28T07:36:39;13.40;99.90
41720;DHT22;27405;53.316;-6.294;2023-04-28T07:39:06;13.40;99.90
41720;DHT22;27405;53.316;-6.294;2023-04-28T07:41:36;13.40;99.90
41720;DHT22;27405;53.316;-6.294;2023-04-28T07:44:03;13.40;99.90
41720;DHT22;27405;53.316;-6.294;2023-04-28T07:46:29;13.40;99.90
41720;DHT22;27405;53.316;-6.294;2023-04-28T07:48:55;13.40;99.90
41720;DHT22;27405;53.316;-6.294;2023-04-28T07:51:21;13.40;99.90
41720;DHT22;27405;53.316;-6.294;2023-04-28T07:53:47;13.50;99.90
41720;DHT22;27405;53.316;-6.294;2023-04-28T07:56:12;13.50;99.90
41720;DHT22;27405;53.316;-6.294;2023-04-28T07:58:38;13.50;99.90
41720;DHT22;27405;53.316;-6.294;2023-04-28T08:01:04;13.60;99.90
41720;DHT22;27405;53.316;-6.294;2023-04-28T08:03:30;13.60;99.90
41720;DHT22;27405;53.316;-6.294;2023-04-28T08:05:55;13.60;99.90
41720;DHT22;27405;53.316;-6.294;2023-04-28T08:08:22;13.60;99.90
41720;DHT22;27405;53.316;-6.294;2023-04-28T08:10:48;13.70;99.90
41720;DHT22;27405;53.316;-6.294;2023-04-28T08:13:15;13.70;99.90
41720;DHT22;27405;53.316;-6.294;2023-04-28T08:15:41;13.80;99.90
41720;DHT22;27405;53.316;-6.294;2023-04-28T08:18:07;13.80;99.90
41720;DHT22;27405;53.316;-6.294;2023-04-28T08:20:33;13.80;99.90
41720;DHT22;27405;53.316;-6.294;2023-04-28T08:22:59;13.80;99.90
41720;DHT22;27405;53.316;-6.294;2023-04-28T08:25:24;13.90;99.90
41720;DHT22;27405;53.316;-6.294;2023-04-28T08:27:50;14.00;99.90
41720;DHT22;27405;53.316;-6.294;2023-04-28T08:30:16;14.00;99.90
41720;DHT22;27405;53.316;-6.294;2023-04-28T08:32:42;14.00;99.90
41720;DHT22;27405;53.316;-6.294;2023-04-28T08:35:08;14.10;99.90
41720;DHT22;27405;53.316;-6.294;2023-04-28T08:37:34;14.10;99.90
41720;DHT22;27405;53.316;-6.294;2023-04-28T08:40:00;14.20;99.90
41720;DHT22;27405;53.316;-6.294;2023-04-28T08:42:35;14.30;99.90
41720;DHT22;27405;53.316;-6.294;2023-04-28T08:45:03;14.40;99.90
41720;DHT22;27405;53.316;-6.294;2023-04-28T08:47:39;14.50;99.90
41720;DHT22;27405;53.316;-6.294;2023-04-28T08:50:12;14.50;99.90
41720;DHT22;27405;53.316;-6.294;2023-04-28T08:52:39;14.60;99.90
41720;DHT22;27405;53.316;-6.294;2023-04-28T08:55:08;14.70;99.90
41720;DHT22;27405;53.316;-6.294;2023-04-28T08:57:58;14.70;99.90
41720;DHT22;27405;53.316;-6.294;2023-04-28T09:00:23;14.70;99.90
41720;DHT22;27405;53.316;-6.294;2023-04-28T09:02:49;14.70;99.90
41720;DHT22;27405;53.316;-6.294;2023-04-28T09:05:14;14.80;99.90
41720;DHT22;27405;53.316;-6.294;2023-04-28T09:07:40;14.80;99.90
41720;DHT22;27405;53.316;-6.294;2023-04-28T09:12:42;15.10;99.90
41720;DHT22;27405;53.316;-6.294;2023-04-28T09:15:09;15.30;99.90
41720;DHT22;27405;53.316;-6.294;2023-04-28T09:17:47;15.40;99.90
41720;DHT22;27405;53.316;-6.294;2023-04-28T09:20:25;15.40;99.90
41720;DHT22;27405;53.316;-6.294;2023-04-28T09:22:52;15.40;99.90
41720;DHT22;27405;53.316;-6.294;2023-04-28T09:25:19;15.30;99.90
41720;DHT22;27405;53.316;-6.294;2023-04-28T09:27:46;15.20;99.90
41720;DHT22;27405;53.316;-6.294;2023-04-28T09:30:11;15.30;99.90
41720;DHT22;27405;53.316;-6.294;2023-04-28T09:32:37;15.30;99.90
41720;DHT22;27405;53.316;-6.294;2023-04-28T09:35:03;15.40;99.90
41720;DHT22;27405;53.316;-6.294;2023-04-28T09:37:30;15.40;99.90
41720;DHT22;27405;53.316;-6.294;2023-04-28T09:40:02;15.50;99.90
41720;DHT22;27405;53.316;-6.294;2023-04-28T09:42:37;15.50;99.90
41720;DHT22;27405;53.316;-6.294;2023-04-28T09:45:08;15.60;99.90
41720;DHT22;27405;53.316;-6.294;2023-04-28T09:47:36;15.50;99.90
41720;DHT22;27405;53.316;-6.294;2023-04-28T09:50:04;15.50;99.90
41720;DHT22;27405;53.316;-6.294;2023-04-28T09:52:34;15.50;99.90
41720;DHT22;27405;53.316;-6.294;2023-04-28T09:55:05;15.50;99.90
41720;DHT22;27405;53.316;-6.294;2023-04-28T09:57:34;15.60;99.90
41720;DHT22;27405;53.316;-6.294;2023-04-28T10:00:01;15.70;99.90
41720;DHT22;27405;53.316;-6.294;2023-04-28T10:02:30;15.70;99.90
41720;DHT22;27405;53.316;-6.294;2023-04-28T10:04:57;15.80;99.90
41720;DHT22;27405;53.316;-6.294;2023-04-28T10:07:22;15.90;99.90
41720;DHT22;27405;53.316;-6.294;2023-04-28T10:09:49;15.90;99.90
41720;DHT22;27405;53.316;-6.294;2023-04-28T10:12:22;15.80;99.90
41720;DHT22;27405;53.316;-6.294;2023-04-28T10:14:49;15.70;99.90
41720;DHT22;27405;53.316;-6.294;2023-04-28T10:17:19;15.60;99.90
41720;DHT22;27405;53.316;-6.294;2023-04-28T10:19:47;15.50;99.90
41720;DHT22;27405;53.316;-6.294;2023-04-28T10:27:42;15.40;99.90
41720;DHT22;27405;53.316;-6.294;2023-04-28T10:30:14;15.40;99.90
41720;DHT22;27405;53.316;-6.294;2023-04-28T10:32:40;15.30;99.90
41720;DHT22;27405;53.316;-6.294;2023-04-28T10:38:10;15.40;99.90
41720;DHT22;27405;53.316;-6.294;2023-04-28T10:43:06;15.50;99.90
41720;DHT22;27405;53.316;-6.294;2023-04-28T10:48:17;15.70;99.90
41720;DHT22;27405;53.316;-6.294;2023-04-28T10:58:46;15.70;99.90
41720;DHT22;27405;53.316;-6.294;2023-04-28T11:03:57;15.60;99.90
41720;DHT22;27405;53.316;-6.294;2023-04-28T11:06:43;15.50;99.90
41720;DHT22;27405;53.316;-6.294;2023-04-28T11:16:52;15.50;99.90
41720;DHT22;27405;53.316;-6.294;2023-04-28T11:19:23;15.60;99.90
41720;DHT22;27405;53.316;-6.294;2023-04-28T11:21:50;15.70;99.90
41720;DHT22;27405;53.316;-6.294;2023-04-28T11:24:16;15.80;99.90
41720;DHT22;27405;53.316;-6.294;2023-04-28T11:26:42;16.00;99.90
41720;DHT22;27405;53.316;-6.294;2023-04-28T11:29:09;16.20;99.90
41720;DHT22;27405;53.316;-6.294;2023-04-28T11:31:35;16.30;99.90
41720;DHT22;27405;53.316;-6.294;2023-04-28T11:34:06;16.40;99.90
41720;DHT22;27405;53.316;-6.294;2023-04-28T11:36:36;16.50;99.90
41720;DHT22;27405;53.316;-6.294;2023-04-28T11:39:08;16.60;99.90
41720;DHT22;27405;53.316;-6.294;2023-04-28T11:41:44;16.70;99.90
41720;DHT22;27405;53.316;-6.294;2023-04-28T11:44:18;16.90;99.90
41720;DHT22;27405;53.316;-6.294;2023-04-28T11:49:11;17.00;99.90
41720;DHT22;27405;53.316;-6.294;2023-04-28T11:51:39;16.90;99.90
41720;DHT22;27405;53.316;-6.294;2023-04-28T11:54:06;16.70;99.90
41720;DHT22;27405;53.316;-6.294;2023-04-28T11:56:41;16.60;99.90
41720;DHT22;27405;53.316;-6.294;2023-04-28T11:59:08;16.40;99.90
41720;DHT22;27405;53.316;-6.294;2023-04-28T12:01:55;16.40;99.90
41720;DHT22;27405;53.316;-6.294;2023-04-28T12:09:32;16.80;99.90
41720;DHT22;27405;53.316;-6.294;2023-04-28T12:12:01;16.90;99.90
41720;DHT22;27405;53.316;-6.294;2023-04-28T12:14:29;17.10;99.90
41720;DHT22;27405;53.316;-6.294;2023-04-28T12:16:56;17.30;99.90
41720;DHT22;27405;53.316;-6.294;2023-04-28T12:19:22;17.50;99.90
41720;DHT22;27405;53.316;-6.294;2023-04-28T12:22:05;17.50;99.90
41720;DHT22;27405;53.316;-6.294;2023-04-28T12:24:31;17.60;99.90
41720;DHT22;27405;53.316;-6.294;2023-04-28T12:27:16;17.70;99.90
41720;DHT22;27405;53.316;-6.294;2023-04-28T12:29:43;17.70;99.90
41720;DHT22;27405;53.316;-6.294;2023-04-28T12:32:11;17.70;99.90
41720;DHT22;27405;53.316;-6.294;2023-04-28T12:34:38;17.60;99.90
41720;DHT22;27405;53.316;-6.294;2023-04-28T12:37:05;17.60;99.90
41720;DHT22;27405;53.316;-6.294;2023-04-28T12:39:35;17.60;99.90
41720;DHT22;27405;53.316;-6.294;2023-04-28T12:42:01;17.50;99.90
41720;DHT22;27405;53.316;-6.294;2023-04-28T12:44:37;17.60;99.90
41720;DHT22;27405;53.316;-6.294;2023-04-28T12:47:07;17.60;99.90
41720;DHT22;27405;53.316;-6.294;2023-04-28T12:49:34;17.70;99.90
41720;DHT22;27405;53.316;-6.294;2023-04-28T12:52:00;17.80;99.90
41720;DHT22;27405;53.316;-6.294;2023-04-28T12:54:25;17.80;99.90
41720;DHT22;27405;53.316;-6.294;2023-04-28T12:56:51;17.90;99.90
41720;DHT22;27405;53.316;-6.294;2023-04-28T12:59:19;17.90;99.90
41720;DHT22;27405;53.316;-6.294;2023-04-28T13:01:46;17.80;99.90
41720;DHT22;27405;53.316;-6.294;2023-04-28T13:04:11;17.70;99.90
41720;DHT22;27405;53.316;-6.294;2023-04-28T13:06:38;17.60;99.90
41720;DHT22;27405;53.316;-6.294;2023-04-28T13:09:05;17.50;99.90
41720;DHT22;27405;53.316;-6.294;2023-04-28T13:11:30;17.30;99.90
41720;DHT22;27405;53.316;-6.294;2023-04-28T13:13:56;17.10;99.90
41720;DHT22;27405;53.316;-6.294;2023-04-28T13:16:22;17.00;99.90
41720;DHT22;27405;53.316;-6.294;2023-04-28T13:18:54;16.90;99.90
41720;DHT22;27405;53.316;-6.294;2023-04-28T13:21:21;17.00;99.90
41720;DHT22;27405;53.316;-6.294;2023-04-28T13:23:47;17.00;99.90
41720;DHT22;27405;53.316;-6.294;2023-04-28T13:26:12;17.00;99.90
41720;DHT22;27405;53.316;-6.294;2023-04-28T13:28:38;17.10;99.90
41720;DHT22;27405;53.316;-6.294;2023-04-28T13:31:04;17.20;99.90
41720;DHT22;27405;53.316;-6.294;2023-04-28T13:33:29;17.40;99.90
41720;DHT22;27405;53.316;-6.294;2023-04-28T13:35:59;17.60;99.90
41720;DHT22;27405;53.316;-6.294;2023-04-28T13:38:25;17.80;99.90
41720;DHT22;27405;53.316;-6.294;2023-04-28T13:40:51;18.00;99.90
41720;DHT22;27405;53.316;-6.294;2023-04-28T13:43:17;18.20;99.90
41720;DHT22;27405;53.316;-6.294;2023-04-28T13:45:43;18.30;99.90
41720;DHT22;27405;53.316;-6.294;2023-04-28T13:48:09;18.30;99.90
41720;DHT22;27405;53.316;-6.294;2023-04-28T13:50:36;18.20;99.90
41720;DHT22;27405;53.316;-6.294;2023-04-28T13:53:02;18.10;99.90
41720;DHT22;27405;53.316;-6.294;2023-04-28T13:55:28;18.10;99.90
41720;DHT22;27405;53.316;-6.294;2023-04-28T13:57:54;18.20;99.90
41720;DHT22;27405;53.316;-6.294;2023-04-28T14:00:21;18.30;99.90
41720;DHT22;27405;53.316;-6.294;2023-04-28T14:02:49;18.50;99.90
41720;DHT22;27405;53.316;-6.294;2023-04-28T14:05:15;18.70;99.90
41720;DHT22;27405;53.316;-6.294;2023-04-28T14:07:42;18.80;99.90
41720;DHT22;27405;53.316;-6.294;2023-04-28T14:10:08;18.90;99.90
41720;DHT22;27405;53.316;-6.294;2023-04-28T14:12:34;19.10;99.90
41720;DHT22;27405;53.316;-6.294;2023-04-28T14:14:59;19.30;99.90
41720;DHT22;27405;53.316;-6.294;2023-04-28T14:17:25;19.40;99.90
41720;DHT22;27405;53.316;-6.294;2023-04-28T14:19:52;19.40;99.90
41720;DHT22;27405;53.316;-6.294;2023-04-28T14:22:18;19.40;99.90
41720;DHT22;27405;53.316;-6.294;2023-04-28T14:24:44;19.40;99.90
41720;DHT22;27405;53.316;-6.294;2023-04-28T14:27:09;19.40;99.90
41720;DHT22;27405;53.316;-6.294;2023-04-28T14:29:35;19.40;99.90
41720;DHT22;27405;53.316;-6.294;2023-04-28T14:32:01;19.20;99.90
41720;DHT22;27405;53.316;-6.294;2023-04-28T14:34:26;19.10;99.90
41720;DHT22;27405;53.316;-6.294;2023-04-28T14:36:53;18.90;99.90
41720;DHT22;27405;53.316;-6.294;2023-04-28T14:39:18;18.90;99.90
41720;DHT22;27405;53.316;-6.294;2023-04-28T14:41:44;18.90;99.90
41720;DHT22;27405;53.316;-6.294;2023-04-28T14:44:10;18.90;99.90
41720;DHT22;27405;53.316;-6.294;2023-04-28T14:46:35;18.80;99.90
41720;DHT22;27405;53.316;-6.294;2023-04-28T14:49:02;18.80;99.90
41720;DHT22;27405;53.316;-6.294;2023-04-28T14:51:28;18.80;99.90
41720;DHT22;27405;53.316;-6.294;2023-04-28T14:53:54;18.90;99.90
41720;DHT22;27405;53.316;-6.294;2023-04-28T14:56:20;18.90;99.90
41720;DHT22;27405;53.316;-6.294;2023-04-28T14:58:46;19.00;99.90
41720;DHT22;27405;53.316;-6.294;2023-04-28T15:01:12;19.00;99.90
41720;DHT22;27405;53.316;-6.294;2023-04-28T15:03:38;19.10;99.90
41720;DHT22;27405;53.316;-6.294;2023-04-28T15:06:04;19.10;99.90
41720;DHT22;27405;53.316;-6.294;2023-04-28T15:08:31;19.20;99.90
41720;DHT22;27405;53.316;-6.294;2023-04-28T15:10:57;19.40;99.90
41720;DHT22;27405;53.316;-6.294;2023-04-28T15:13:23;19.60;99.90
41720;DHT22;27405;53.316;-6.294;2023-04-28T15:15:53;19.90;99.90
41720;DHT22;27405;53.316;-6.294;2023-04-28T15:18:18;20.10;99.90
41720;DHT22;27405;53.316;-6.294;2023-04-28T15:20:45;20.10;99.60
41720;DHT22;27405;53.316;-6.294;2023-04-28T15:23:11;20.20;99.20
41720;DHT22;27405;53.316;-6.294;2023-04-28T15:25:36;20.30;99.10
41720;DHT22;27405;53.316;-6.294;2023-04-28T15:28:02;20.40;98.90
41720;DHT22;27405;53.316;-6.294;2023-04-28T15:30:29;20.40;98.60
41720;DHT22;27405;53.316;-6.294;2023-04-28T15:32:55;20.50;98.40
41720;DHT22;27405;53.316;-6.294;2023-04-28T15:35:21;20.40;98.10
41720;DHT22;27405;53.316;-6.294;2023-04-28T15:37:46;20.50;98.20
41720;DHT22;27405;53.316;-6.294;2023-04-28T15:40:16;20.60;97.80
41720;DHT22;27405;53.316;-6.294;2023-04-28T15:42:44;20.60;97.40
41720;DHT22;27405;53.316;-6.294;2023-04-28T15:45:14;20.60;97.40
41720;DHT22;27405;53.316;-6.294;2023-04-28T15:47:41;20.50;97.00
41720;DHT22;27405;53.316;-6.294;2023-04-28T15:50:10;20.40;96.90
41720;DHT22;27405;53.316;-6.294;2023-04-28T15:52:42;20.20;96.60
41720;DHT22;27405;53.316;-6.294;2023-04-28T15:55:12;20.00;96.60